sensor_id;sensor_type;location;lat;lon;timestamp;P1;durP1;ratioP1;P2;durP2;ratioP2
24729;SDS011;12832;52.392;13.066;2023-08-08T00:00:08;0.50;;;0.50;;
24729;SDS011;12832;52.392;13.066;2023-08-08T00:02:35;0.45;;;0.45;;
24729;SDS011;12832;52.392;13.066;2023-08-08T00:05:02;0.60;;;0.50;;
24729;SDS011;12832;52.392;13.066;2023-08-08T00:07:28;0.70;;;0.60;;
24729;SDS011;12832;52.392;13.066;2023-08-08T00:09:57;0.88;;;0.65;;
24729;SDS011;12832;52.392;13.066;2023-08-08T00:12:23;1.08;;;0.70;;
24729;SDS011;12832;52.392;13.066;2023-08-08T00:14:50;0.43;;;0.43;;
24729;SDS011;12832;52.392;13.066;2023-08-08T00:17:16;0.40;;;0.40;;
24729;SDS011;12832;52.392;13.066;2023-08-08T00:19:42;0.55;;;0.55;;
24729;SDS011;12832;52.392;13.066;2023-08-08T00:22:08;0.50;;;0.50;;
24729;SDS011;12832;52.392;13.066;2023-08-08T00:24:34;0.70;;;0.50;;
24729;SDS011;12832;52.392;13.066;2023-08-08T00:27:01;0.93;;;0.73;;
24729;SDS011;12832;52.392;13.066;2023-08-08T00:29:27;0.80;;;0.60;;
24729;SDS011;12832;52.392;13.066;2023-08-08T00:31:53;0.68;;;0.50;;
24729;SDS011;12832;52.392;13.066;2023-08-08T00:34:19;0.80;;;0.60;;
24729;SDS011;12832;52.392;13.066;2023-08-08T00:36:45;0.40;;;0.40;;
24729;SDS011;12832;52.392;13.066;2023-08-08T00:39:11;0.73;;;0.57;;
24729;SDS011;12832;52.392;13.066;2023-08-08T00:41:38;0.50;;;0.40;;
24729;SDS011;12832;52.392;13.066;2023-08-08T00:44:04;0.40;;;0.40;;
24729;SDS011;12832;52.392;13.066;2023-08-08T00:46:30;0.80;;;0.68;;
24729;SDS011;12832;52.392;13.066;2023-08-08T00:48:57;0.98;;;0.60;;
24729;SDS011;12832;52.392;13.066;2023-08-08T00:51:24;0.70;;;0.60;;
24729;SDS011;12832;52.392;13.066;2023-08-08T00:53:50;0.63;;;0.60;;
24729;SDS011;12832;52.392;13.066;2023-08-08T00:56:17;0.50;;;0.50;;
24729;SDS011;12832;52.392;13.066;2023-08-08T00:58:44;0.45;;;0.45;;
24729;SDS011;12832;52.392;13.066;2023-08-08T01:01:16;0.50;;;0.50;;
24729;SDS011;12832;52.392;13.066;2023-08-08T01:03:43;0.57;;;0.50;;
24729;SDS011;12832;52.392;13.066;2023-08-08T01:06:18;0.57;;;0.40;;
24729;SDS011;12832;52.392;13.066;2023-08-08T01:08:47;0.98;;;0.52;;
24729;SDS011;12832;52.392;13.066;2023-08-08T01:11:18;0.85;;;0.70;;
24729;SDS011;12832;52.392;13.066;2023-08-08T01:13:45;0.40;;;0.40;;
24729;SDS011;12832;52.392;13.066;2023-08-08T01:16:12;0.65;;;0.65;;
24729;SDS011;12832;52.392;13.066;2023-08-08T01:18:39;0.47;;;0.40;;
24729;SDS011;12832;52.392;13.066;2023-08-08T01:21:06;0.52;;;0.52;;
24729;SDS011;12832;52.392;13.066;2023-08-08T01:23:46;0.38;;;0.38;;
24729;SDS011;12832;52.392;13.066;2023-08-08T01:26:12;0.73;;;0.55;;
24729;SDS011;12832;52.392;13.066;2023-08-08T01:28:39;0.93;;;0.50;;
24729;SDS011;12832;52.392;13.066;2023-08-08T01:31:07;0.52;;;0.52;;
24729;SDS011;12832;52.392;13.066;2023-08-08T01:33:34;0.40;;;0.40;;
24729;SDS011;12832;52.392;13.066;2023-08-08T01:36:01;1.02;;;0.50;;
24729;SDS011;12832;52.392;13.066;2023-08-08T01:38:33;0.52;;;0.52;;
24729;SDS011;12832;52.392;13.066;2023-08-08T01:41:04;0.40;;;0.40;;
24729;SDS011;12832;52.392;13.066;2023-08-08T01:43:31;0.40;;;0.40;;
24729;SDS011;12832;52.392;13.066;2023-08-08T01:45:58;0.52;;;0.52;;
24729;SDS011;12832;52.392;13.066;2023-08-08T01:48:27;0.80;;;0.50;;
24729;SDS011;12832;52.392;13.066;2023-08-08T01:50:54;0.80;;;0.60;;
24729;SDS011;12832;52.392;13.066;2023-08-08T01:53:20;0.60;;;0.60;;
24729;SDS011;12832;52.392;13.066;2023-08-08T01:55:46;0.40;;;0.40;;
24729;SDS011;12832;52.392;13.066;2023-08-08T01:58:12;0.43;;;0.40;;
24729;SDS011;12832;52.392;13.066;2023-08-08T02:00:38;1.67;;;0.50;;
24729;SDS011;12832;52.392;13.066;2023-08-08T02:03:06;0.43;;;0.35;;
24729;SDS011;12832;52.392;13.066;2023-08-08T02:05:33;0.50;;;0.50;;
24729;SDS011;12832;52.392;13.066;2023-08-08T02:07:59;0.60;;;0.43;;
24729;SDS011;12832;52.392;13.066;2023-08-08T02:10:25;0.40;;;0.40;;
24729;SDS011;12832;52.392;13.066;2023-08-08T02:12:51;0.77;;;0.50;;
24729;SDS011;12832;52.392;13.066;2023-08-08T02:15:17;0.65;;;0.50;;
24729;SDS011;12832;52.392;13.066;2023-08-08T02:17:45;0.47;;;0.40;;
24729;SDS011;12832;52.392;13.066;2023-08-08T02:20:12;0.43;;;0.40;;
24729;SDS011;12832;52.392;13.066;2023-08-08T02:22:38;0.35;;;0.32;;
24729;SDS011;12832;52.392;13.066;2023-08-08T02:25:04;0.55;;;0.40;;
24729;SDS011;12832;52.392;13.066;2023-08-08T02:27:30;0.60;;;0.50;;
24729;SDS011;12832;52.392;13.066;2023-08-08T02:29:57;0.45;;;0.45;;
24729;SDS011;12832;52.392;13.066;2023-08-08T02:32:23;0.60;;;0.60;;
24729;SDS011;12832;52.392;13.066;2023-08-08T02:34:49;0.88;;;0.30;;
24729;SDS011;12832;52.392;13.066;2023-08-08T02:37:16;0.40;;;0.40;;
24729;SDS011;12832;52.392;13.066;2023-08-08T02:39:43;1.02;;;0.60;;
24729;SDS011;12832;52.392;13.066;2023-08-08T02:42:10;0.73;;;0.50;;
24729;SDS011;12832;52.392;13.066;2023-08-08T02:44:36;0.40;;;0.20;;
24729;SDS011;12832;52.392;13.066;2023-08-08T02:47:02;0.50;;;0.43;;
24729;SDS011;12832;52.392;13.066;2023-08-08T02:49:28;0.55;;;0.55;;
24729;SDS011;12832;52.392;13.066;2023-08-08T02:51:55;0.30;;;0.30;;
24729;SDS011;12832;52.392;13.066;2023-08-08T02:54:21;0.50;;;0.50;;
24729;SDS011;12832;52.392;13.066;2023-08-08T02:56:47;0.47;;;0.47;;
24729;SDS011;12832;52.392;13.066;2023-08-08T02:59:13;0.40;;;0.40;;
24729;SDS011;12832;52.392;13.066;2023-08-08T03:01:40;0.52;;;0.40;;
24729;SDS011;12832;52.392;13.066;2023-08-08T03:04:06;0.40;;;0.40;;
24729;SDS011;12832;52.392;13.066;2023-08-08T03:06:32;0.57;;;0.57;;
24729;SDS011;12832;52.392;13.066;2023-08-08T03:08:58;0.43;;;0.30;;
24729;SDS011;12832;52.392;13.066;2023-08-08T03:11:25;0.73;;;0.50;;
24729;SDS011;12832;52.392;13.066;2023-08-08T03:13:51;0.50;;;0.50;;
24729;SDS011;12832;52.392;13.066;2023-08-08T03:16:17;0.68;;;0.40;;
24729;SDS011;12832;52.392;13.066;2023-08-08T03:18:43;0.60;;;0.60;;
24729;SDS011;12832;52.392;13.066;2023-08-08T03:21:10;0.40;;;0.40;;
24729;SDS011;12832;52.392;13.066;2023-08-08T03:23:36;0.57;;;0.50;;
24729;SDS011;12832;52.392;13.066;2023-08-08T03:26:02;0.40;;;0.38;;
24729;SDS011;12832;52.392;13.066;2023-08-08T03:28:28;0.50;;;0.47;;
24729;SDS011;12832;52.392;13.066;2023-08-08T03:30:55;0.40;;;0.32;;
24729;SDS011;12832;52.392;13.066;2023-08-08T03:33:21;0.65;;;0.50;;
24729;SDS011;12832;52.392;13.066;2023-08-08T03:35:47;0.40;;;0.40;;
24729;SDS011;12832;52.392;13.066;2023-08-08T03:38:13;0.30;;;0.30;;
24729;SDS011;12832;52.392;13.066;2023-08-08T03:40:39;0.50;;;0.50;;
24729;SDS011;12832;52.392;13.066;2023-08-08T03:43:06;0.40;;;0.40;;
24729;SDS011;12832;52.392;13.066;2023-08-08T03:45:32;0.30;;;0.30;;
24729;SDS011;12832;52.392;13.066;2023-08-08T03:47:58;0.35;;;0.35;;
24729;SDS011;12832;52.392;13.066;2023-08-08T03:50:24;0.47;;;0.47;;
24729;SDS011;12832;52.392;13.066;2023-08-08T03:52:51;0.40;;;0.40;;
24729;SDS011;12832;52.392;13.066;2023-08-08T03:55:18;0.60;;;0.52;;
24729;SDS011;12832;52.392;13.066;2023-08-08T03:57:44;0.55;;;0.55;;
24729;SDS011;12832;52.392;13.066;2023-08-08T04:00:11;0.30;;;0.30;;
24729;SDS011;12832;52.392;13.066;2023-08-08T04:02:37;0.40;;;0.40;;
24729;SDS011;12832;52.392;13.066;2023-08-08T04:05:04;0.30;;;0.30;;
24729;SDS011;12832;52.392;13.066;2023-08-08T04:07:30;1.55;;;0.43;;
24729;SDS011;12832;52.392;13.066;2023-08-08T04:09:57;3.10;;;0.45;;
24729;SDS011;12832;52.392;13.066;2023-08-08T04:12:23;0.57;;;0.47;;
24729;SDS011;12832;52.392;13.066;2023-08-08T04:14:49;0.70;;;0.43;;
24729;SDS011;12832;52.392;13.066;2023-08-08T04:17:15;1.13;;;0.60;;
24729;SDS011;12832;52.392;13.066;2023-08-08T04:19:41;3.15;;;0.95;;
24729;SDS011;12832;52.392;13.066;2023-08-08T04:22:07;4.45;;;0.73;;
24729;SDS011;12832;52.392;13.066;2023-08-08T04:24:34;0.60;;;0.47;;
24729;SDS011;12832;52.392;13.066;2023-08-08T04:27:00;3.35;;;0.68;;
24729;SDS011;12832;52.392;13.066;2023-08-08T04:29:26;2.17;;;0.60;;
24729;SDS011;12832;52.392;13.066;2023-08-08T04:31:52;3.60;;;0.55;;
24729;SDS011;12832;52.392;13.066;2023-08-08T04:34:19;2.85;;;0.50;;
24729;SDS011;12832;52.392;13.066;2023-08-08T04:36:45;1.65;;;0.40;;
24729;SDS011;12832;52.392;13.066;2023-08-08T04:39:11;0.30;;;0.30;;
24729;SDS011;12832;52.392;13.066;2023-08-08T04:41:38;0.75;;;0.40;;
24729;SDS011;12832;52.392;13.066;2023-08-08T04:44:04;0.93;;;0.32;;
24729;SDS011;12832;52.392;13.066;2023-08-08T04:46:30;0.73;;;0.40;;
24729;SDS011;12832;52.392;13.066;2023-08-08T04:48:56;0.52;;;0.40;;
24729;SDS011;12832;52.392;13.066;2023-08-08T04:51:24;0.40;;;0.40;;
24729;SDS011;12832;52.392;13.066;2023-08-08T04:53:51;0.93;;;0.50;;
24729;SDS011;12832;52.392;13.066;2023-08-08T04:56:17;0.57;;;0.30;;
24729;SDS011;12832;52.392;13.066;2023-08-08T04:58:43;0.65;;;0.30;;
24729;SDS011;12832;52.392;13.066;2023-08-08T05:01:10;1.67;;;0.30;;
24729;SDS011;12832;52.392;13.066;2023-08-08T05:03:40;0.40;;;0.30;;
24729;SDS011;12832;52.392;13.066;2023-08-08T05:06:06;0.50;;;0.25;;
24729;SDS011;12832;52.392;13.066;2023-08-08T05:08:32;0.40;;;0.30;;
24729;SDS011;12832;52.392;13.066;2023-08-08T05:10:59;2.45;;;0.45;;
24729;SDS011;12832;52.392;13.066;2023-08-08T05:13:25;0.73;;;0.60;;
24729;SDS011;12832;52.392;13.066;2023-08-08T05:15:52;1.52;;;0.60;;
24729;SDS011;12832;52.392;13.066;2023-08-08T05:18:18;2.63;;;0.98;;
24729;SDS011;12832;52.392;13.066;2023-08-08T05:20:44;3.65;;;1.10;;
24729;SDS011;12832;52.392;13.066;2023-08-08T05:23:11;9.25;;;1.60;;
24729;SDS011;12832;52.392;13.066;2023-08-08T05:25:37;1.50;;;1.10;;
24729;SDS011;12832;52.392;13.066;2023-08-08T05:28:03;3.70;;;1.48;;
24729;SDS011;12832;52.392;13.066;2023-08-08T05:30:30;1.55;;;1.10;;
24729;SDS011;12832;52.392;13.066;2023-08-08T05:32:56;4.60;;;1.55;;
24729;SDS011;12832;52.392;13.066;2023-08-08T05:35:22;2.63;;;1.63;;
24729;SDS011;12832;52.392;13.066;2023-08-08T05:37:48;3.45;;;1.50;;
24729;SDS011;12832;52.392;13.066;2023-08-08T05:40:14;2.15;;;1.33;;
24729;SDS011;12832;52.392;13.066;2023-08-08T05:42:41;2.97;;;1.10;;
24729;SDS011;12832;52.392;13.066;2023-08-08T05:45:07;3.67;;;1.13;;
24729;SDS011;12832;52.392;13.066;2023-08-08T05:47:34;3.35;;;1.08;;
24729;SDS011;12832;52.392;13.066;2023-08-08T05:50:00;3.47;;;1.35;;
24729;SDS011;12832;52.392;13.066;2023-08-08T05:52:27;2.45;;;1.30;;
24729;SDS011;12832;52.392;13.066;2023-08-08T05:54:54;2.78;;;0.98;;
24729;SDS011;12832;52.392;13.066;2023-08-08T05:57:21;3.70;;;1.60;;
24729;SDS011;12832;52.392;13.066;2023-08-08T05:59:48;2.58;;;1.25;;
24729;SDS011;12832;52.392;13.066;2023-08-08T06:02:14;3.97;;;1.40;;
24729;SDS011;12832;52.392;13.066;2023-08-08T06:04:40;2.80;;;1.27;;
24729;SDS011;12832;52.392;13.066;2023-08-08T06:07:06;4.72;;;1.10;;
24729;SDS011;12832;52.392;13.066;2023-08-08T06:09:35;2.95;;;1.23;;
24729;SDS011;12832;52.392;13.066;2023-08-08T06:12:03;1.58;;;0.88;;
24729;SDS011;12832;52.392;13.066;2023-08-08T06:14:30;2.35;;;0.90;;
24729;SDS011;12832;52.392;13.066;2023-08-08T06:16:56;2.85;;;0.90;;
24729;SDS011;12832;52.392;13.066;2023-08-08T06:19:22;1.80;;;1.15;;
24729;SDS011;12832;52.392;13.066;2023-08-08T06:21:49;1.65;;;0.90;;
24729;SDS011;12832;52.392;13.066;2023-08-08T06:24:16;1.60;;;0.90;;
24729;SDS011;12832;52.392;13.066;2023-08-08T06:26:42;1.88;;;1.00;;
24729;SDS011;12832;52.392;13.066;2023-08-08T06:29:08;3.50;;;1.08;;
24729;SDS011;12832;52.392;13.066;2023-08-08T06:31:35;1.30;;;0.90;;
24729;SDS011;12832;52.392;13.066;2023-08-08T06:34:01;3.05;;;1.25;;
24729;SDS011;12832;52.392;13.066;2023-08-08T06:36:27;2.70;;;1.10;;
24729;SDS011;12832;52.392;13.066;2023-08-08T06:38:54;4.57;;;1.70;;
24729;SDS011;12832;52.392;13.066;2023-08-08T06:41:20;2.63;;;1.13;;
24729;SDS011;12832;52.392;13.066;2023-08-08T06:43:46;2.50;;;1.20;;
24729;SDS011;12832;52.392;13.066;2023-08-08T06:46:13;3.13;;;1.05;;
24729;SDS011;12832;52.392;13.066;2023-08-08T06:48:42;2.42;;;1.08;;
24729;SDS011;12832;52.392;13.066;2023-08-08T06:51:10;2.38;;;1.23;;
24729;SDS011;12832;52.392;13.066;2023-08-08T06:53:37;0.95;;;0.80;;
24729;SDS011;12832;52.392;13.066;2023-08-08T06:56:03;1.83;;;1.10;;
24729;SDS011;12832;52.392;13.066;2023-08-08T06:58:29;1.17;;;0.80;;
24729;SDS011;12832;52.392;13.066;2023-08-08T07:00:56;2.35;;;1.25;;
24729;SDS011;12832;52.392;13.066;2023-08-08T07:03:22;0.80;;;0.80;;
24729;SDS011;12832;52.392;13.066;2023-08-08T07:05:48;1.10;;;0.90;;
24729;SDS011;12832;52.392;13.066;2023-08-08T07:08:20;3.10;;;1.10;;
24729;SDS011;12832;52.392;13.066;2023-08-08T07:10:46;2.13;;;1.17;;
24729;SDS011;12832;52.392;13.066;2023-08-08T07:13:12;0.95;;;0.80;;
24729;SDS011;12832;52.392;13.066;2023-08-08T07:15:41;2.70;;;1.02;;
24729;SDS011;12832;52.392;13.066;2023-08-08T07:18:07;1.52;;;1.00;;
24729;SDS011;12832;52.392;13.066;2023-08-08T07:20:34;1.08;;;0.90;;
24729;SDS011;12832;52.392;13.066;2023-08-08T07:23:00;1.10;;;0.90;;
24729;SDS011;12832;52.392;13.066;2023-08-08T07:25:27;2.00;;;0.75;;
24729;SDS011;12832;52.392;13.066;2023-08-08T07:27:53;2.30;;;0.98;;
24729;SDS011;12832;52.392;13.066;2023-08-08T07:30:20;1.63;;;0.77;;
24729;SDS011;12832;52.392;13.066;2023-08-08T07:32:47;0.93;;;0.70;;
24729;SDS011;12832;52.392;13.066;2023-08-08T07:35:13;1.00;;;0.80;;
24729;SDS011;12832;52.392;13.066;2023-08-08T07:37:40;1.83;;;0.90;;
24729;SDS011;12832;52.392;13.066;2023-08-08T07:40:16;1.27;;;0.95;;
24729;SDS011;12832;52.392;13.066;2023-08-08T07:42:47;1.60;;;1.00;;
24729;SDS011;12832;52.392;13.066;2023-08-08T07:45:13;4.18;;;1.42;;
24729;SDS011;12832;52.392;13.066;2023-08-08T07:47:39;1.48;;;0.95;;
24729;SDS011;12832;52.392;13.066;2023-08-08T07:50:06;1.08;;;0.80;;
24729;SDS011;12832;52.392;13.066;2023-08-08T07:52:34;1.17;;;1.08;;
24729;SDS011;12832;52.392;13.066;2023-08-08T07:55:01;1.75;;;1.00;;
24729;SDS011;12832;52.392;13.066;2023-08-08T07:57:29;1.33;;;0.93;;
24729;SDS011;12832;52.392;13.066;2023-08-08T08:00:00;1.55;;;0.95;;
24729;SDS011;12832;52.392;13.066;2023-08-08T08:02:36;1.83;;;1.00;;
24729;SDS011;12832;52.392;13.066;2023-08-08T08:05:03;2.13;;;1.10;;
24729;SDS011;12832;52.392;13.066;2023-08-08T08:07:32;1.65;;;1.10;;
24729;SDS011;12832;52.392;13.066;2023-08-08T08:09:58;1.75;;;1.08;;
24729;SDS011;12832;52.392;13.066;2023-08-08T08:12:24;2.08;;;1.10;;
24729;SDS011;12832;52.392;13.066;2023-08-08T08:14:50;1.73;;;0.90;;
24729;SDS011;12832;52.392;13.066;2023-08-08T08:17:16;2.08;;;1.00;;
24729;SDS011;12832;52.392;13.066;2023-08-08T08:19:43;2.50;;;1.10;;
24729;SDS011;12832;52.392;13.066;2023-08-08T08:22:09;1.83;;;0.90;;
24729;SDS011;12832;52.392;13.066;2023-08-08T08:24:35;1.33;;;1.05;;
24729;SDS011;12832;52.392;13.066;2023-08-08T08:27:01;1.15;;;1.00;;
24729;SDS011;12832;52.392;13.066;2023-08-08T08:29:27;1.50;;;0.90;;
24729;SDS011;12832;52.392;13.066;2023-08-08T08:31:54;2.08;;;0.82;;
24729;SDS011;12832;52.392;13.066;2023-08-08T08:34:20;1.77;;;0.90;;
24729;SDS011;12832;52.392;13.066;2023-08-08T08:36:46;3.70;;;0.95;;
24729;SDS011;12832;52.392;13.066;2023-08-08T08:39:13;1.50;;;1.00;;
24729;SDS011;12832;52.392;13.066;2023-08-08T08:41:39;3.85;;;1.00;;
24729;SDS011;12832;52.392;13.066;2023-08-08T08:44:05;1.85;;;0.98;;
24729;SDS011;12832;52.392;13.066;2023-08-08T08:46:32;2.03;;;1.10;;
24729;SDS011;12832;52.392;13.066;2023-08-08T08:49:01;2.47;;;0.90;;
24729;SDS011;12832;52.392;13.066;2023-08-08T08:51:29;1.35;;;1.05;;
24729;SDS011;12832;52.392;13.066;2023-08-08T08:53:56;3.38;;;1.10;;
24729;SDS011;12832;52.392;13.066;2023-08-08T08:56:24;2.67;;;1.20;;
24729;SDS011;12832;52.392;13.066;2023-08-08T08:58:51;1.05;;;0.88;;
24729;SDS011;12832;52.392;13.066;2023-08-08T09:01:17;1.95;;;0.90;;
24729;SDS011;12832;52.392;13.066;2023-08-08T09:03:45;2.50;;;1.23;;
24729;SDS011;12832;52.392;13.066;2023-08-08T09:06:11;1.88;;;0.98;;
24729;SDS011;12832;52.392;13.066;2023-08-08T09:08:38;2.97;;;1.17;;
24729;SDS011;12832;52.392;13.066;2023-08-08T09:11:04;1.33;;;1.00;;
24729;SDS011;12832;52.392;13.066;2023-08-08T09:13:48;1.17;;;0.93;;
24729;SDS011;12832;52.392;13.066;2023-08-08T09:16:16;1.33;;;1.10;;
24729;SDS011;12832;52.392;13.066;2023-08-08T09:18:43;2.55;;;1.30;;
24729;SDS011;12832;52.392;13.066;2023-08-08T09:21:10;1.73;;;0.85;;
24729;SDS011;12832;52.392;13.066;2023-08-08T09:23:36;2.00;;;1.05;;
24729;SDS011;12832;52.392;13.066;2023-08-08T09:26:04;1.90;;;1.05;;
24729;SDS011;12832;52.392;13.066;2023-08-08T09:28:31;2.20;;;1.35;;
24729;SDS011;12832;52.392;13.066;2023-08-08T09:30:57;3.55;;;1.10;;
24729;SDS011;12832;52.392;13.066;2023-08-08T09:33:27;2.00;;;1.23;;
24729;SDS011;12832;52.392;13.066;2023-08-08T09:35:54;2.88;;;1.30;;
24729;SDS011;12832;52.392;13.066;2023-08-08T09:38:21;1.65;;;0.90;;
24729;SDS011;12832;52.392;13.066;2023-08-08T09:40:47;1.10;;;0.90;;
24729;SDS011;12832;52.392;13.066;2023-08-08T09:43:15;4.07;;;1.27;;
24729;SDS011;12832;52.392;13.066;2023-08-08T09:45:42;2.00;;;1.10;;
24729;SDS011;12832;52.392;13.066;2023-08-08T09:48:10;1.83;;;1.10;;
24729;SDS011;12832;52.392;13.066;2023-08-08T09:50:36;1.83;;;1.00;;
24729;SDS011;12832;52.392;13.066;2023-08-08T09:53:03;1.83;;;1.02;;
24729;SDS011;12832;52.392;13.066;2023-08-08T09:55:32;2.17;;;1.30;;
24729;SDS011;12832;52.392;13.066;2023-08-08T09:57:59;1.27;;;0.95;;
24729;SDS011;12832;52.392;13.066;2023-08-08T10:00:27;1.65;;;1.15;;
24729;SDS011;12832;52.392;13.066;2023-08-08T10:02:56;1.65;;;1.20;;
24729;SDS011;12832;52.392;13.066;2023-08-08T10:05:22;2.67;;;1.40;;
24729;SDS011;12832;52.392;13.066;2023-08-08T10:07:50;1.67;;;1.10;;
24729;SDS011;12832;52.392;13.066;2023-08-08T10:10:18;2.15;;;1.00;;
24729;SDS011;12832;52.392;13.066;2023-08-08T10:12:45;1.52;;;1.02;;
24729;SDS011;12832;52.392;13.066;2023-08-08T10:15:12;1.60;;;1.02;;
24729;SDS011;12832;52.392;13.066;2023-08-08T10:17:39;2.30;;;1.30;;
24729;SDS011;12832;52.392;13.066;2023-08-08T10:20:10;1.33;;;0.98;;
24729;SDS011;12832;52.392;13.066;2023-08-08T10:22:41;1.90;;;1.10;;
24729;SDS011;12832;52.392;13.066;2023-08-08T10:25:08;1.90;;;1.05;;
24729;SDS011;12832;52.392;13.066;2023-08-08T10:27:42;1.75;;;1.05;;
24729;SDS011;12832;52.392;13.066;2023-08-08T10:30:09;2.90;;;0.88;;
24729;SDS011;12832;52.392;13.066;2023-08-08T10:32:39;4.15;;;1.00;;
24729;SDS011;12832;52.392;13.066;2023-08-08T10:35:11;1.98;;;1.00;;
24729;SDS011;12832;52.392;13.066;2023-08-08T10:37:38;1.23;;;0.90;;
24729;SDS011;12832;52.392;13.066;2023-08-08T10:40:05;1.55;;;1.00;;
24729;SDS011;12832;52.392;13.066;2023-08-08T10:42:33;1.55;;;1.00;;
24729;SDS011;12832;52.392;13.066;2023-08-08T10:45:09;2.65;;;1.13;;
24729;SDS011;12832;52.392;13.066;2023-08-08T10:47:39;1.92;;;0.98;;
24729;SDS011;12832;52.392;13.066;2023-08-08T10:50:07;1.60;;;1.20;;
24729;SDS011;12832;52.392;13.066;2023-08-08T10:55:30;2.33;;;1.27;;
24729;SDS011;12832;52.392;13.066;2023-08-08T10:58:06;1.95;;;1.13;;
24729;SDS011;12832;52.392;13.066;2023-08-08T11:00:34;1.40;;;0.98;;
24729;SDS011;12832;52.392;13.066;2023-08-08T11:03:02;1.23;;;0.82;;
24729;SDS011;12832;52.392;13.066;2023-08-08T11:05:32;2.60;;;1.20;;
24729;SDS011;12832;52.392;13.066;2023-08-08T11:08:00;1.52;;;0.98;;
24729;SDS011;12832;52.392;13.066;2023-08-08T11:10:27;0.90;;;0.80;;
24729;SDS011;12832;52.392;13.066;2023-08-08T11:12:57;1.40;;;1.20;;
24729;SDS011;12832;52.392;13.066;2023-08-08T11:15:27;1.85;;;1.10;;
24729;SDS011;12832;52.392;13.066;2023-08-08T11:17:56;1.55;;;0.98;;
24729;SDS011;12832;52.392;13.066;2023-08-08T11:20:23;2.33;;;1.13;;
24729;SDS011;12832;52.392;13.066;2023-08-08T11:22:50;1.30;;;0.90;;
24729;SDS011;12832;52.392;13.066;2023-08-08T11:25:21;2.38;;;1.35;;
24729;SDS011;12832;52.392;13.066;2023-08-08T11:27:48;1.17;;;0.90;;
24729;SDS011;12832;52.392;13.066;2023-08-08T11:30:16;2.30;;;0.98;;
24729;SDS011;12832;52.392;13.066;2023-08-08T11:32:43;1.83;;;1.15;;
24729;SDS011;12832;52.392;13.066;2023-08-08T11:35:09;1.70;;;1.02;;
24729;SDS011;12832;52.392;13.066;2023-08-08T11:37:36;1.90;;;0.95;;
24729;SDS011;12832;52.392;13.066;2023-08-08T11:40:03;1.35;;;1.20;;
24729;SDS011;12832;52.392;13.066;2023-08-08T11:42:31;1.40;;;1.25;;
24729;SDS011;12832;52.392;13.066;2023-08-08T11:44:57;1.40;;;1.00;;
24729;SDS011;12832;52.392;13.066;2023-08-08T11:47:24;1.58;;;1.20;;
24729;SDS011;12832;52.392;13.066;2023-08-08T11:49:51;1.92;;;1.13;;
24729;SDS011;12832;52.392;13.066;2023-08-08T11:52:19;1.70;;;1.10;;
24729;SDS011;12832;52.392;13.066;2023-08-08T11:54:50;1.42;;;1.20;;
24729;SDS011;12832;52.392;13.066;2023-08-08T11:57:17;1.65;;;1.10;;
24729;SDS011;12832;52.392;13.066;2023-08-08T11:59:44;1.75;;;1.25;;
24729;SDS011;12832;52.392;13.066;2023-08-08T12:02:10;1.30;;;1.20;;
24729;SDS011;12832;52.392;13.066;2023-08-08T12:04:37;1.67;;;1.08;;
24729;SDS011;12832;52.392;13.066;2023-08-08T12:07:03;1.60;;;1.15;;
24729;SDS011;12832;52.392;13.066;2023-08-08T12:09:32;2.00;;;1.08;;
24729;SDS011;12832;52.392;13.066;2023-08-08T12:12:00;1.67;;;1.17;;
24729;SDS011;12832;52.392;13.066;2023-08-08T12:14:27;1.70;;;1.00;;
24729;SDS011;12832;52.392;13.066;2023-08-08T12:16:53;2.33;;;1.30;;
24729;SDS011;12832;52.392;13.066;2023-08-08T12:19:24;1.77;;;1.00;;
24729;SDS011;12832;52.392;13.066;2023-08-08T12:21:51;1.33;;;0.80;;
24729;SDS011;12832;52.392;13.066;2023-08-08T12:24:18;1.83;;;1.10;;
24729;SDS011;12832;52.392;13.066;2023-08-08T12:26:44;1.48;;;1.10;;
24729;SDS011;12832;52.392;13.066;2023-08-08T12:29:11;3.28;;;1.23;;
24729;SDS011;12832;52.392;13.066;2023-08-08T12:31:37;3.13;;;1.45;;
24729;SDS011;12832;52.392;13.066;2023-08-08T12:34:05;1.48;;;1.10;;
24729;SDS011;12832;52.392;13.066;2023-08-08T12:36:33;1.85;;;1.35;;
24729;SDS011;12832;52.392;13.066;2023-08-08T12:38:59;1.10;;;0.88;;
24729;SDS011;12832;52.392;13.066;2023-08-08T12:41:26;1.95;;;1.30;;
24729;SDS011;12832;52.392;13.066;2023-08-08T12:43:52;3.47;;;1.48;;
24729;SDS011;12832;52.392;13.066;2023-08-08T12:46:18;4.25;;;1.20;;
24729;SDS011;12832;52.392;13.066;2023-08-08T12:48:44;1.67;;;1.00;;
24729;SDS011;12832;52.392;13.066;2023-08-08T12:51:10;2.03;;;1.08;;
24729;SDS011;12832;52.392;13.066;2023-08-08T12:53:37;1.50;;;1.00;;
24729;SDS011;12832;52.392;13.066;2023-08-08T12:56:03;1.35;;;1.08;;
24729;SDS011;12832;52.392;13.066;2023-08-08T12:58:29;1.48;;;1.15;;
24729;SDS011;12832;52.392;13.066;2023-08-08T13:00:55;2.03;;;0.98;;
24729;SDS011;12832;52.392;13.066;2023-08-08T13:03:22;1.20;;;1.05;;
24729;SDS011;12832;52.392;13.066;2023-08-08T13:05:48;1.48;;;0.98;;
24729;SDS011;12832;52.392;13.066;2023-08-08T13:08:14;1.98;;;1.00;;
24729;SDS011;12832;52.392;13.066;2023-08-08T13:10:40;1.50;;;1.30;;
24729;SDS011;12832;52.392;13.066;2023-08-08T13:13:07;1.25;;;0.95;;
24729;SDS011;12832;52.392;13.066;2023-08-08T13:15:34;1.23;;;0.90;;
24729;SDS011;12832;52.392;13.066;2023-08-08T13:18:00;1.10;;;1.00;;
24729;SDS011;12832;52.392;13.066;2023-08-08T13:20:27;1.67;;;1.10;;
24729;SDS011;12832;52.392;13.066;2023-08-08T13:22:53;1.55;;;0.90;;
24729;SDS011;12832;52.392;13.066;2023-08-08T13:25:19;3.03;;;1.20;;
24729;SDS011;12832;52.392;13.066;2023-08-08T13:27:46;3.03;;;1.10;;
24729;SDS011;12832;52.392;13.066;2023-08-08T13:30:13;1.65;;;1.05;;
24729;SDS011;12832;52.392;13.066;2023-08-08T13:32:42;1.40;;;1.23;;
24729;SDS011;12832;52.392;13.066;2023-08-08T13:35:08;2.00;;;1.15;;
24729;SDS011;12832;52.392;13.066;2023-08-08T13:37:34;1.55;;;0.90;;
24729;SDS011;12832;52.392;13.066;2023-08-08T13:40:01;1.35;;;0.90;;
24729;SDS011;12832;52.392;13.066;2023-08-08T13:42:27;0.80;;;0.80;;
24729;SDS011;12832;52.392;13.066;2023-08-08T13:44:53;2.28;;;1.00;;
24729;SDS011;12832;52.392;13.066;2023-08-08T13:47:21;2.03;;;1.10;;
24729;SDS011;12832;52.392;13.066;2023-08-08T13:49:47;1.50;;;1.00;;
24729;SDS011;12832;52.392;13.066;2023-08-08T13:52:13;2.13;;;0.88;;
24729;SDS011;12832;52.392;13.066;2023-08-08T13:54:39;1.10;;;1.00;;
24729;SDS011;12832;52.392;13.066;2023-08-08T13:57:06;0.60;;;0.60;;
24729;SDS011;12832;52.392;13.066;2023-08-08T13:59:32;1.00;;;0.90;;
24729;SDS011;12832;52.392;13.066;2023-08-08T14:01:58;0.80;;;0.80;;
24729;SDS011;12832;52.392;13.066;2023-08-08T14:04:25;1.40;;;1.15;;
24729;SDS011;12832;52.392;13.066;2023-08-08T14:06:52;0.93;;;0.90;;
24729;SDS011;12832;52.392;13.066;2023-08-08T14:09:18;1.30;;;1.20;;
24729;SDS011;12832;52.392;13.066;2023-08-08T14:11:45;1.65;;;0.90;;
24729;SDS011;12832;52.392;13.066;2023-08-08T14:14:11;1.10;;;0.73;;
24729;SDS011;12832;52.392;13.066;2023-08-08T14:16:37;2.20;;;0.82;;
24729;SDS011;12832;52.392;13.066;2023-08-08T14:19:04;2.03;;;1.00;;
24729;SDS011;12832;52.392;13.066;2023-08-08T14:21:30;1.73;;;0.98;;
24729;SDS011;12832;52.392;13.066;2023-08-08T14:23:56;1.58;;;1.00;;
24729;SDS011;12832;52.392;13.066;2023-08-08T14:26:22;3.17;;;1.17;;
24729;SDS011;12832;52.392;13.066;2023-08-08T14:28:48;1.92;;;1.10;;
24729;SDS011;12832;52.392;13.066;2023-08-08T14:31:15;1.95;;;1.40;;
24729;SDS011;12832;52.392;13.066;2023-08-08T14:33:41;1.98;;;0.98;;